Aviation Digital Data Service (ADDS)

Output produced by METARs form (0441 UTC 01 November 2014)
found at http://aviationweather.gov/adds/metars/
 
KCON 312320Z 0100/0124 VRB03KT P6SM BKN050 
     FM010900 36006KT P6SM OVC025 
     FM011400 36012KT 6SM -RA OVC025